Terminal Aerodrome Forecast
Issued by NWS

Home | Current Version | Previous Version | Text Only | Print | Product List | Glossary On
Versions: 1 2 3 4 5 6 7 8 9 10 11 12 13 14 15 16 17 18 19 20 21 22 23 24 25 26 27 28 29
000
FTUS41 KILN 232030 AAA
TAFLUK
TAF AMD
KLUK 232030Z 2321/2418 25011KT P6SM VCSH BKN017 BKN027 OVC100
     FM232300 27006KT P6SM VCSH OVC028
     FM240500 36004KT 5SM BR VCSH OVC015
     FM241000 07005KT 5SM -SHRA OVC010
     FM241400 09005KT 3SM SHRA OVC015=

USA.gov is the U.S. government's official web portal to all federal, state and local government web resources and services.